Time;durP1;ratioP1;P1;durP2;ratioP2;P2;SDS_P1;SDS_P2;PMS_P1;PMS_P2;Temp;Humidity;BMP_temperature;BMP_pressure;BME280_temperature;BME280_humidity;BME280_pressure;Samples;Min_cycle;Max_cycle;Signal;HPM_P1;HPM_P2
2023/03/21 00:00:40;;;;;;;34.00;22.42;;;12.80;97.20;;;;;;5049379;28;20197;-70
2023/03/21 00:03:07;;;;;;;38.00;22.20;;;12.40;98.20;;;;;;5053662;28;20041;-70
2023/03/21 00:05:44;;;;;;;33.70;22.60;;;12.40;98.40;;;;;;5040996;28;20094;-71
2023/03/21 00:08:11;;;;;;;40.20;22.83;;;12.50;98.20;;;;;;5059839;28;20051;-70
2023/03/21 00:10:39;;;;;;;37.03;22.92;;;12.70;98.20;;;;;;5043153;28;20055;-70
2023/03/21 00:13:14;;;;;;;38.25;23.67;;;12.70;98.20;;;;;;5058959;28;20053;-70
2023/03/21 00:15:53;;;;;;;36.50;23.48;;;12.50;98.40;;;;;;5045136;28;20040;-69
2023/03/21 00:18:47;;;;;;;31.23;20.70;;;12.60;98.20;;;;;;5036990;28;20041;-70
2023/03/21 00:21:17;;;;;;;32.40;18.73;;;12.60;97.60;;;;;;5055623;28;20041;-67
2023/03/21 00:24:05;;;;;;;35.50;21.50;;;12.60;97.30;;;;;;5043826;28;20048;-68
2023/03/21 00:26:33;;;;;;;35.20;22.63;;;12.60;97.90;;;;;;5036006;28;20069;-68
2023/03/21 00:29:00;;;;;;;41.80;23.30;;;12.50;98.50;;;;;;5053585;28;20474;-69
2023/03/21 00:31:27;;;;;;;37.15;22.58;;;12.40;98.40;;;;;;5053667;28;20439;-69
2023/03/21 00:33:55;;;;;;;30.63;21.70;;;12.40;98.50;;;;;;5065946;28;20048;-68
2023/03/21 00:36:24;;;;;;;37.00;20.83;;;12.30;98.40;;;;;;5055846;28;20049;-70
2023/03/21 00:38:52;;;;;;;29.73;19.95;;;12.30;98.30;;;;;;5052583;28;20055;-67
2023/03/21 00:41:20;;;;;;;31.80;18.17;;;12.30;98.30;;;;;;5061367;28;20564;-68
2023/03/21 00:44:07;;;;;;;36.92;18.45;;;12.30;97.80;;;;;;5071880;28;20049;-70
2023/03/21 00:46:35;;;;;;;35.35;19.23;;;12.30;97.60;;;;;;5072364;28;20083;-70
2023/03/21 00:49:15;;;;;;;36.08;20.42;;;11.90;98.90;;;;;;5052417;28;20450;-70
2023/03/21 00:51:43;;;;;;;34.03;18.48;;;12.00;98.60;;;;;;5049125;28;20051;-70
2023/03/21 00:54:11;;;;;;;34.33;19.35;;;12.20;98.00;;;;;;5068160;28;20044;-69
2023/03/21 00:56:39;;;;;;;36.78;20.40;;;12.40;97.40;;;;;;5035204;28;20045;-71
2023/03/21 00:59:06;;;;;;;38.70;21.73;;;12.30;98.00;;;;;;5052645;28;20373;-69
2023/03/21 01:01:33;;;;;;;40.13;20.35;;;12.10;98.90;;;;;;5052780;28;20095;-69
2023/03/21 01:04:06;;;;;;;40.35;20.27;;;12.10;98.80;;;;;;5052358;28;20040;-68
2023/03/21 01:06:39;;;;;;;33.28;16.25;;;12.10;98.50;;;;;;5065671;28;20067;-69
2023/03/21 01:09:15;;;;;;;24.27;15.80;;;12.20;96.80;;;;;;5051975;28;20036;-69
2023/03/21 01:11:42;;;;;;;29.05;17.42;;;12.40;95.90;;;;;;5052466;28;20401;-70
2023/03/21 01:14:11;;;;;;;33.58;19.05;;;12.40;96.60;;;;;;5044215;28;20033;-69
2023/03/21 01:16:52;;;;;;;35.60;20.35;;;12.20;97.60;;;;;;5071893;28;20040;-68
2023/03/21 01:19:22;;;;;;;37.05;21.17;;;12.10;99.30;;;;;;5042220;28;20485;-68
2023/03/21 01:21:59;;;;;;;37.10;21.55;;;12.10;99.80;;;;;;5052471;28;20134;-70
2023/03/21 01:24:26;;;;;;;35.03;21.23;;;12.00;99.90;;;;;;5052923;28;20051;-71
2023/03/21 01:26:54;;;;;;;33.22;21.48;;;11.80;99.90;;;;;;5072240;28;20043;-69
2023/03/21 01:29:21;;;;;;;39.45;22.73;;;11.70;99.90;;;;;;5056525;28;20036;-69
2023/03/21 01:31:48;;;;;;;38.15;23.70;;;11.70;99.90;;;;;;5052199;28;20037;-70
2023/03/21 01:34:17;;;;;;;41.00;24.05;;;11.80;99.90;;;;;;5067421;28;20049;-70
2023/03/21 01:36:44;;;;;;;38.15;22.85;;;11.70;99.90;;;;;;5060546;28;20397;-69
2023/03/21 01:39:11;;;;;;;37.22;22.42;;;11.70;99.90;;;;;;5064530;28;20042;-70
2023/03/21 01:41:41;;;;;;;35.85;22.25;;;11.70;99.90;;;;;;5051754;28;20107;-70
2023/03/21 01:44:18;;;;;;;37.63;22.63;;;11.30;99.90;;;;;;5056450;28;20040;-71
2023/03/21 01:46:51;;;;;;;35.90;21.98;;;10.90;99.90;;;;;;5071328;28;20040;-71
2023/03/21 01:49:44;;;;;;;34.17;21.38;;;11.20;99.90;;;;;;5071104;28;20173;-69
2023/03/21 01:52:17;;;;;;;35.35;21.52;;;11.50;99.90;;;;;;5057954;28;20044;-69
2023/03/21 01:54:57;;;;;;;36.65;21.48;;;11.30;99.90;;;;;;5056586;28;20130;-71
2023/03/21 01:57:31;;;;;;;37.17;21.92;;;11.40;99.90;;;;;;5064364;28;20120;-70
2023/03/21 02:00:11;;;;;;;35.92;22.33;;;11.50;99.90;;;;;;5064984;28;20071;-69
2023/03/21 02:02:50;;;;;;;42.38;22.55;;;11.60;99.90;;;;;;5070990;28;20481;-70
2023/03/21 02:05:23;;;;;;;38.90;22.42;;;11.50;99.90;;;;;;5057382;28;20099;-70
2023/03/21 02:07:51;;;;;;;41.03;23.08;;;11.50;99.90;;;;;;5070795;28;20052;-70
2023/03/21 02:10:19;;;;;;;40.40;24.13;;;11.50;99.90;;;;;;5052344;28;20119;-70
2023/03/21 02:12:47;;;;;;;36.20;20.88;;;11.50;99.90;;;;;;5071092;28;20040;-70
2023/03/21 02:15:14;;;;;;;33.60;21.70;;;11.50;99.90;;;;;;5052626;28;20041;-69
2023/03/21 02:18:04;;;;;;;37.22;21.33;;;11.60;99.90;;;;;;5070878;28;20072;-70
2023/03/21 02:20:57;;;;;;;37.33;22.17;;;11.60;99.90;;;;;;5059553;28;20044;-70
2023/03/21 02:23:35;;;;;;;38.75;22.50;;;11.40;99.90;;;;;;5047633;28;20055;-70
2023/03/21 02:26:16;;;;;;;35.83;23.20;;;11.20;99.90;;;;;;5052287;28;20029;-70
2023/03/21 02:29:32;;;;;;;40.90;24.45;;;11.10;99.90;;;;;;5059234;28;20094;-68
2023/03/21 02:32:20;;;;;;;37.65;22.50;;;11.10;99.90;;;;;;5019895;28;20047;-67
2023/03/21 02:35:11;;;;;;;44.00;23.45;;;10.90;99.90;;;;;;5051746;28;20684;-69
2023/03/21 02:37:55;;;;;;;37.45;22.50;;;10.90;99.90;;;;;;5018482;28;20033;-68
2023/03/21 02:40:26;;;;;;;35.10;22.85;;;11.00;99.90;;;;;;5063447;28;20049;-68
2023/03/21 02:43:14;;;;;;;40.03;23.98;;;10.90;99.90;;;;;;5058910;28;20477;-69
2023/03/21 02:46:27;;;;;;;36.72;23.17;;;10.80;99.90;;;;;;5033673;28;20405;-69
2023/03/21 02:49:11;;;;;;;30.58;20.23;;;10.90;99.90;;;;;;5032287;28;20048;-69
2023/03/21 02:51:41;;;;;;;31.48;20.52;;;10.90;99.90;;;;;;5056338;28;20048;-69
2023/03/21 02:54:12;;;;;;;36.43;21.47;;;10.90;99.90;;;;;;5054720;28;20033;-69
2023/03/21 02:57:03;;;;;;;32.08;21.45;;;10.80;99.90;;;;;;5064262;28;20281;-69
2023/03/21 02:59:32;;;;;;;33.00;22.42;;;10.80;99.90;;;;;;5053247;28;20403;-68
2023/03/21 03:02:04;;;;;;;39.08;20.27;;;10.80;99.90;;;;;;5052398;28;20140;-68
2023/03/21 03:04:31;;;;;;;33.10;19.52;;;10.80;99.90;;;;;;5052768;28;20044;-69
2023/03/21 03:07:37;;;;;;;34.30;21.17;;;10.90;99.90;;;;;;5056491;28;20442;-69
2023/03/21 03:10:17;;;;;;;33.50;20.02;;;11.00;99.90;;;;;;4963272;28;20105;-69
2023/03/21 03:13:22;;;;;;;34.78;21.08;;;11.00;99.90;;;;;;5051613;28;20076;-69
2023/03/21 03:16:36;;;;;;;32.05;19.20;;;10.80;99.90;;;;;;5026880;28;20044;-67
2023/03/21 03:19:09;;;;;;;26.17;18.30;;;10.70;99.90;;;;;;5008532;28;20435;-68
2023/03/21 03:22:15;;;;;;;33.58;20.13;;;10.80;99.90;;;;;;5047622;28;20084;-68
2023/03/21 03:24:53;;;;;;;30.13;19.98;;;10.80;99.90;;;;;;5043164;28;20072;-69
2023/03/21 03:27:28;;;;;;;33.85;20.90;;;10.90;99.90;;;;;;5040121;28;20040;-69
2023/03/21 03:29:58;;;;;;;33.22;20.88;;;10.90;99.90;;;;;;5055203;28;20416;-69
2023/03/21 03:32:52;;;;;;;35.60;21.55;;;10.90;99.90;;;;;;5055317;28;20036;-70
2023/03/21 03:35:21;;;;;;;36.08;22.45;;;10.80;99.90;;;;;;5058181;28;20074;-71
2023/03/21 03:37:55;;;;;;;36.03;21.67;;;10.70;99.90;;;;;;5030652;28;20389;-70
2023/03/21 03:40:22;;;;;;;34.72;20.75;;;10.80;99.90;;;;;;5073586;28;20090;-70
2023/03/21 03:42:56;;;;;;;32.20;19.75;;;10.80;99.90;;;;;;5056238;28;20033;-70
2023/03/21 03:45:35;;;;;;;33.58;21.20;;;10.80;99.90;;;;;;5059978;28;20064;-68
2023/03/21 03:48:12;;;;;;;36.35;21.35;;;10.70;99.90;;;;;;5073571;28;20033;-69
2023/03/21 03:51:02;;;;;;;31.13;19.85;;;10.70;99.90;;;;;;5042720;28;20055;-69
2023/03/21 03:53:49;;;;;;;33.80;19.65;;;10.70;99.90;;;;;;5052678;28;20033;-68
2023/03/21 03:56:17;;;;;;;30.20;19.38;;;10.70;99.90;;;;;;5030889;28;20057;-68
2023/03/21 03:58:45;;;;;;;28.80;19.40;;;10.40;99.90;;;;;;5053865;28;20037;-70
2023/03/21 04:01:12;;;;;;;30.50;19.60;;;10.50;99.90;;;;;;5053901;28;20055;-70
2023/03/21 04:03:44;;;;;;;32.45;20.58;;;10.40;99.90;;;;;;5056296;28;20098;-69
2023/03/21 04:06:18;;;;;;;30.85;19.27;;;10.50;99.90;;;;;;5044823;28;20107;-69
2023/03/21 04:08:46;;;;;;;27.25;18.50;;;10.40;99.90;;;;;;5066757;28;20037;-69
2023/03/21 04:11:15;;;;;;;36.35;19.50;;;10.50;99.90;;;;;;5047777;28;20036;-70
2023/03/21 04:13:42;;;;;;;26.48;17.20;;;10.60;99.90;;;;;;5054361;28;20037;-68
2023/03/21 04:16:11;;;;;;;27.17;16.58;;;10.50;99.90;;;;;;5066222;28;20044;-69
2023/03/21 04:18:40;;;;;;;29.70;18.23;;;10.50;99.90;;;;;;5035699;28;20044;-69
2023/03/21 04:21:12;;;;;;;30.73;19.20;;;10.20;99.90;;;;;;5053796;28;20049;-69
2023/03/21 04:23:40;;;;;;;27.70;17.67;;;10.20;99.90;;;;;;5065088;28;20052;-67
2023/03/21 04:26:08;;;;;;;24.77;17.25;;;10.00;99.90;;;;;;5054968;28;20493;-69
2023/03/21 04:28:36;;;;;;;25.55;17.33;;;10.00;99.90;;;;;;5072485;28;20096;-71
2023/03/21 04:31:08;;;;;;;25.55;17.20;;;10.10;99.90;;;;;;5053636;28;20037;-70
2023/03/21 04:33:50;;;;;;;24.10;17.50;;;10.20;99.90;;;;;;5072276;28;20072;-69
2023/03/21 04:36:25;;;;;;;28.90;18.52;;;10.20;99.90;;;;;;5048213;28;20049;-68
2023/03/21 04:38:52;;;;;;;30.20;17.95;;;10.20;99.90;;;;;;5058349;28;20040;-68
2023/03/21 04:41:20;;;;;;;24.35;16.95;;;10.30;99.90;;;;;;5061765;28;20067;-69
2023/03/21 04:43:47;;;;;;;26.38;17.67;;;10.20;99.90;;;;;;5059994;28;20049;-70
2023/03/21 04:46:14;;;;;;;26.08;17.20;;;10.20;99.90;;;;;;5046084;28;20123;-71
2023/03/21 04:48:42;;;;;;;27.90;17.80;;;10.10;99.90;;;;;;5048954;28;20116;-69
2023/03/21 04:51:09;;;;;;;25.50;16.73;;;9.90;99.90;;;;;;5053313;28;20045;-69
2023/03/21 04:53:38;;;;;;;22.90;15.20;;;9.90;99.90;;;;;;5056147;28;20037;-70
2023/03/21 04:56:06;;;;;;;24.38;15.27;;;9.90;99.90;;;;;;5041608;28;20053;-70
2023/03/21 04:58:33;;;;;;;21.52;15.20;;;10.00;99.90;;;;;;5071940;28;20036;-69
2023/03/21 05:01:01;;;;;;;21.73;14.05;;;10.10;99.90;;;;;;5052461;28;20428;-69
2023/03/21 05:03:33;;;;;;;22.10;15.13;;;9.90;99.90;;;;;;5035590;28;20052;-70
2023/03/21 05:06:00;;;;;;;25.23;15.32;;;10.00;99.90;;;;;;5054649;28;20036;-69
2023/03/21 05:08:28;;;;;;;22.27;14.52;;;10.00;99.90;;;;;;5053945;28;20048;-71
2023/03/21 05:10:55;;;;;;;23.55;15.07;;;10.00;99.90;;;;;;5054785;28;20036;-69
2023/03/21 05:13:23;;;;;;;28.40;16.63;;;10.20;99.90;;;;;;5071705;28;20052;-68
2023/03/21 05:15:50;;;;;;;29.00;18.63;;;10.40;99.90;;;;;;5034529;28;20053;-68
2023/03/21 05:18:23;;;;;;;31.90;17.40;;;10.50;99.90;;;;;;5068757;28;20111;-70
2023/03/21 05:20:55;;;;;;;22.50;15.75;;;10.70;99.90;;;;;;5053662;28;20044;-69
2023/03/21 05:23:23;;;;;;;30.30;15.88;;;10.70;99.90;;;;;;5059791;28;20044;-70
2023/03/21 05:25:50;;;;;;;29.55;16.92;;;10.70;99.90;;;;;;5047032;28;20423;-69
2023/03/21 05:28:18;;;;;;;25.83;16.92;;;10.70;99.90;;;;;;5055462;28;20065;-68
2023/03/21 05:30:46;;;;;;;29.55;18.48;;;10.60;99.90;;;;;;5026304;28;20052;-72
2023/03/21 05:33:13;;;;;;;38.78;21.42;;;10.60;99.90;;;;;;5067792;28;20112;-69
2023/03/21 05:35:40;;;;;;;34.03;21.00;;;10.70;99.90;;;;;;5061527;28;20047;-67
2023/03/21 05:38:08;;;;;;;26.48;18.33;;;10.70;99.90;;;;;;5042878;28;20147;-69
2023/03/21 05:40:35;;;;;;;25.52;17.88;;;10.70;99.90;;;;;;5043606;28;20086;-68
2023/03/21 05:43:04;;;;;;;28.83;19.23;;;10.70;99.90;;;;;;5046466;28;20040;-66
2023/03/21 05:45:32;;;;;;;31.67;20.42;;;10.80;99.90;;;;;;5025748;28;20506;-69
2023/03/21 05:47:59;;;;;;;36.22;21.05;;;10.80;99.90;;;;;;5071726;28;20040;-69
2023/03/21 05:50:28;;;;;;;32.65;20.50;;;10.90;99.90;;;;;;5064245;28;20130;-70
2023/03/21 05:52:58;;;;;;;36.95;18.40;;;10.90;99.90;;;;;;5047899;28;20047;-68
2023/03/21 05:55:25;;;;;;;27.40;16.35;;;10.90;99.90;;;;;;5034531;28;20411;-70
2023/03/21 05:57:52;;;;;;;25.65;16.08;;;10.60;99.90;;;;;;5058870;28;20036;-70
2023/03/21 06:00:21;;;;;;;92.78;56.13;;;10.50;99.90;;;;;;5052135;28;20047;-69
2023/03/21 06:02:48;;;;;;;93.85;59.83;;;10.50;99.90;;;;;;5052193;28;20048;-68
2023/03/21 06:05:15;;;;;;;81.68;49.40;;;10.70;99.90;;;;;;5039909;28;20055;-69
2023/03/21 06:07:43;;;;;;;136.57;79.88;;;10.80;99.90;;;;;;5063646;28;20037;-67
2023/03/21 06:10:11;;;;;;;272.05;145.45;;;10.80;99.90;;;;;;5054923;28;20045;-71
2023/03/21 06:12:38;;;;;;;61.53;38.40;;;10.80;99.90;;;;;;5050147;28;20045;-70
2023/03/21 06:15:07;;;;;;;32.80;23.42;;;10.60;99.90;;;;;;5046374;28;20048;-72
2023/03/21 06:17:34;;;;;;;26.17;19.85;;;10.60;99.90;;;;;;5026312;28;20102;-69
2023/03/21 06:20:03;;;;;;;24.23;17.52;;;10.60;99.90;;;;;;5037078;28;20074;-71
2023/03/21 06:22:32;;;;;;;36.60;20.70;;;10.50;99.90;;;;;;5050326;28;20045;-72
2023/03/21 06:25:04;;;;;;;31.55;19.33;;;10.60;99.90;;;;;;5059954;28;20040;-70
2023/03/21 06:27:34;;;;;;;26.30;17.85;;;10.60;99.90;;;;;;5034792;28;20396;-70
2023/03/21 06:30:05;;;;;;;28.13;18.65;;;10.50;99.90;;;;;;5023308;28;20555;-70
2023/03/21 06:32:41;;;;;;;29.95;19.60;;;10.50;99.90;;;;;;5052983;28;20064;-71
2023/03/21 06:35:11;;;;;;;29.20;18.15;;;10.60;99.90;;;;;;5028238;28;20139;-70
2023/03/21 06:37:38;;;;;;;25.17;18.45;;;10.80;99.90;;;;;;5047182;28;20056;-70
2023/03/21 06:40:07;;;;;;;27.98;18.77;;;11.00;99.90;;;;;;5050962;28;20056;-71
2023/03/21 06:42:36;;;;;;;;;;;11.00;99.90;;;;;;5023456;28;20054;-70
2023/03/21 06:45:05;;;;;;;31.50;19.95;;;11.10;99.90;;;;;;5040274;28;19920;-71
2023/03/21 06:47:33;;;;;;;32.60;20.60;;;11.20;99.90;;;;;;5070967;28;20408;-70
2023/03/21 06:50:00;;;;;;;131.75;71.55;;;11.30;99.90;;;;;;5036272;28;20048;-69
2023/03/21 06:52:27;;;;;;;96.93;55.08;;;11.30;99.90;;;;;;5033475;28;20045;-72
2023/03/21 06:54:55;;;;;;;32.70;24.40;;;11.60;99.90;;;;;;5033478;28;20060;-70
2023/03/21 06:57:22;;;;;;;32.08;20.02;;;11.40;99.90;;;;;;5028965;28;20064;-69
2023/03/21 06:59:49;;;;;;;25.45;18.27;;;11.50;99.90;;;;;;5041253;28;20040;-72
2023/03/21 07:02:16;;;;;;;30.27;18.20;;;11.40;99.90;;;;;;5070494;28;20415;-72
2023/03/21 07:04:44;;;;;;;23.45;16.45;;;11.40;99.90;;;;;;5051119;28;20094;-72
2023/03/21 07:07:11;;;;;;;21.40;14.77;;;11.50;99.90;;;;;;5037661;28;20041;-69
2023/03/21 07:09:41;;;;;;;23.75;15.75;;;11.50;99.90;;;;;;5058420;28;20032;-70
2023/03/21 07:12:09;;;;;;;35.92;17.23;;;11.60;99.90;;;;;;5054344;28;20044;-70
2023/03/21 07:14:36;;;;;;;27.10;17.50;;;11.80;99.90;;;;;;5059229;28;20090;-71
2023/03/21 07:17:03;;;;;;;32.72;17.55;;;11.80;99.90;;;;;;5054855;28;20039;-72
2023/03/21 07:19:30;;;;;;;25.42;18.67;;;11.80;99.90;;;;;;5059722;28;20408;-75
2023/03/21 07:21:59;;;;;;;23.95;17.30;;;11.90;99.90;;;;;;5053952;28;20052;-73
2023/03/21 07:24:26;;;;;;;25.85;17.10;;;11.70;99.90;;;;;;5062582;28;20435;-73
2023/03/21 07:26:53;;;;;;;26.75;16.92;;;11.70;99.90;;;;;;5021810;28;20052;-70
2023/03/21 07:29:22;;;;;;;21.45;16.70;;;11.60;99.90;;;;;;5059911;28;20376;-69
2023/03/21 07:31:49;;;;;;;24.65;15.63;;;11.70;99.90;;;;;;5028414;28;20060;-69
2023/03/21 07:34:17;;;;;;;21.27;15.27;;;11.80;99.90;;;;;;5039590;28;20385;-72
2023/03/21 07:36:44;;;;;;;24.08;16.13;;;11.60;99.90;;;;;;5059457;28;20044;-70
2023/03/21 07:39:12;;;;;;;22.60;15.88;;;11.50;99.90;;;;;;5037108;28;20135;-70
2023/03/21 07:41:39;;;;;;;19.77;14.18;;;11.60;99.90;;;;;;5052881;28;20040;-73
2023/03/21 07:44:06;;;;;;;21.63;14.77;;;11.50;99.90;;;;;;5051466;28;20051;-74
2023/03/21 07:46:34;;;;;;;22.02;15.13;;;11.30;99.90;;;;;;5050774;28;20049;-72
2023/03/21 07:49:01;;;;;;;18.67;14.75;;;11.50;99.90;;;;;;5062878;28;20504;-70
2023/03/21 07:51:28;;;;;;;24.58;15.93;;;11.70;99.90;;;;;;5050268;28;20045;-72
2023/03/21 07:53:55;;;;;;;19.73;15.45;;;11.90;99.90;;;;;;5050503;28;20033;-71
2023/03/21 07:56:23;;;;;;;21.92;15.80;;;11.80;99.90;;;;;;5032650;28;20063;-71
2023/03/21 07:58:50;;;;;;;24.00;15.13;;;12.00;99.90;;;;;;5031329;28;20047;-71
2023/03/21 08:01:17;;;;;;;26.77;15.48;;;12.20;99.90;;;;;;5052439;28;20480;-74
2023/03/21 08:03:44;;;;;;;25.80;15.93;;;12.40;99.90;;;;;;5069696;28;20478;-71
2023/03/21 08:06:12;;;;;;;22.63;16.30;;;12.30;99.90;;;;;;5069521;28;20044;-71
2023/03/21 08:08:39;;;;;;;25.73;17.48;;;12.40;99.90;;;;;;5053015;28;20404;-71
2023/03/21 08:11:07;;;;;;;26.88;17.95;;;12.30;99.90;;;;;;5055964;28;20045;-73
2023/03/21 08:13:35;;;;;;;32.35;19.80;;;12.50;99.90;;;;;;5055444;28;20032;-71
2023/03/21 08:16:02;;;;;;;36.65;22.05;;;12.40;99.90;;;;;;5062038;28;20041;-73
2023/03/21 08:18:29;;;;;;;32.33;19.05;;;12.40;99.90;;;;;;5036024;28;20391;-69
2023/03/21 08:21:00;;;;;;;24.55;18.52;;;12.60;99.90;;;;;;5055664;28;20041;-72
2023/03/21 08:23:28;;;;;;;28.27;19.92;;;12.60;99.90;;;;;;5073398;28;20040;-71
2023/03/21 08:25:56;;;;;;;28.35;19.10;;;12.80;99.90;;;;;;5035383;28;20045;-73
2023/03/21 08:28:23;;;;;;;34.08;19.98;;;13.00;99.90;;;;;;5073000;28;20056;-70
2023/03/21 08:30:50;;;;;;;28.95;19.63;;;13.10;99.90;;;;;;5036074;28;20131;-72
2023/03/21 08:33:18;;;;;;;28.20;19.10;;;13.30;99.90;;;;;;5039064;28;20510;-72
2023/03/21 08:35:46;;;;;;;35.67;20.42;;;13.50;99.90;;;;;;5070990;28;20047;-74
2023/03/21 08:38:13;;;;;;;28.65;19.77;;;13.70;99.80;;;;;;5063741;28;20474;-73
2023/03/21 08:40:40;;;;;;;31.40;19.75;;;13.60;99.10;;;;;;5051580;28;20063;-74
2023/03/21 08:43:08;;;;;;;27.27;18.50;;;13.60;99.30;;;;;;5072742;28;20480;-70
2023/03/21 08:45:35;;;;;;;31.00;19.70;;;13.60;99.10;;;;;;5072960;28;20047;-70
2023/03/21 08:48:04;;;;;;;29.48;20.20;;;13.80;99.30;;;;;;5055333;28;20556;-71
2023/03/21 08:50:31;;;;;;;32.42;19.52;;;13.80;99.20;;;;;;5049762;28;20444;-69
2023/03/21 08:52:58;;;;;;;28.52;19.20;;;14.00;98.70;;;;;;5047033;28;20051;-73
2023/03/21 08:55:26;;;;;;;25.55;17.80;;;14.20;98.00;;;;;;5037082;28;20071;-69
2023/03/21 08:57:53;;;;;;;30.52;18.38;;;14.40;96.90;;;;;;5046846;28;20095;-71
2023/03/21 09:00:24;;;;;;;32.72;18.15;;;14.40;96.70;;;;;;5048567;28;20126;-71
2023/03/21 09:02:54;;;;;;;29.90;18.35;;;14.40;96.60;;;;;;5045117;28;20041;-71
2023/03/21 09:05:24;;;;;;;32.38;18.85;;;14.40;96.60;;;;;;5035552;28;20087;-72
2023/03/21 09:07:51;;;;;;;31.83;18.52;;;14.40;96.90;;;;;;5025940;28;20083;-70
2023/03/21 09:10:20;;;;;;;26.98;19.10;;;14.50;96.20;;;;;;5035758;28;20045;-72
2023/03/21 09:12:50;;;;;;;33.15;21.00;;;14.70;95.50;;;;;;5063984;28;20546;-71
2023/03/21 09:15:20;;;;;;;33.03;21.77;;;14.80;95.00;;;;;;5054220;28;20094;-70
2023/03/21 09:17:51;;;;;;;32.97;22.00;;;15.00;94.70;;;;;;5035100;28;20041;-70
2023/03/21 09:20:24;;;;;;;32.90;21.80;;;14.90;94.70;;;;;;5041793;28;20045;-70
2023/03/21 09:22:53;;;;;;;30.05;21.45;;;15.00;94.70;;;;;;5023766;28;20095;-70
2023/03/21 09:25:20;;;;;;;33.97;21.05;;;15.00;95.00;;;;;;5052759;28;20148;-71
2023/03/21 09:27:47;;;;;;;25.30;18.73;;;15.00;94.90;;;;;;5032236;28;20151;-72
2023/03/21 09:30:21;;;;;;;28.33;18.15;;;15.00;95.30;;;;;;5062126;28;20400;-74
2023/03/21 09:32:54;;;;;;;26.45;17.65;;;15.10;95.10;;;;;;5037577;28;20049;-74
2023/03/21 09:35:23;;;;;;;25.45;17.42;;;14.90;95.70;;;;;;5064707;28;20081;-70
2023/03/21 09:37:52;;;;;;;25.00;17.08;;;15.00;95.80;;;;;;5022312;28;20499;-69
2023/03/21 09:40:40;;;;;;;27.10;17.58;;;15.20;95.10;;;;;;5052693;28;20488;-72
2023/03/21 09:43:20;;;;;;;25.08;16.63;;;15.20;93.80;;;;;;5034107;28;20087;-72
2023/03/21 09:45:48;;;;;;;;;;;15.10;93.90;;;;;;5053417;28;20052;-73
2023/03/21 09:48:30;;;;;;;23.42;15.52;;;14.90;93.70;;;;;;5060024;28;19930;-70
2023/03/21 09:50:58;;;;;;;22.17;16.10;;;15.10;93.50;;;;;;5042264;28;20071;-73
2023/03/21 09:53:31;;;;;;;25.38;16.13;;;15.20;93.50;;;;;;5071217;28;20033;-74
2023/03/21 09:56:01;;;;;;;25.63;16.05;;;15.30;92.90;;;;;;5058067;28;20489;-71
2023/03/21 09:58:37;;;;;;;23.20;15.70;;;15.60;92.90;;;;;;5042205;28;20048;-74
2023/03/21 10:01:21;;;;;;;22.13;13.55;;;15.90;92.50;;;;;;5051710;28;20377;-73
2023/03/21 10:03:53;;;;;;;19.77;13.48;;;15.90;91.80;;;;;;5018045;28;20060;-73
2023/03/21 10:06:28;;;;;;;20.48;13.18;;;16.00;91.20;;;;;;5051731;28;20373;-72
2023/03/21 10:09:06;;;;;;;23.48;13.48;;;15.80;91.50;;;;;;5052418;28;20056;-71
2023/03/21 10:11:47;;;;;;;20.70;13.27;;;15.40;92.00;;;;;;5035250;28;20120;-73
2023/03/21 10:14:27;;;;;;;26.80;14.95;;;15.60;92.50;;;;;;5027879;28;20037;-73
2023/03/21 10:17:31;;;;;;;24.87;14.80;;;15.70;92.90;;;;;;5055022;28;20128;-72
2023/03/21 10:20:13;;;;;;;21.05;13.30;;;16.20;92.10;;;;;;4991575;28;20075;-72
2023/03/21 10:22:41;;;;;;;21.75;13.13;;;16.50;91.00;;;;;;5052815;28;20045;-73
2023/03/21 10:25:15;;;;;;;20.25;13.70;;;16.80;90.40;;;;;;5048427;28;20041;-74
2023/03/21 10:27:43;;;;;;;18.35;12.82;;;17.00;90.40;;;;;;5035973;28;20045;-73
2023/03/21 10:30:29;;;;;;;26.92;13.00;;;17.10;89.80;;;;;;5052732;28;20049;-73
2023/03/21 10:33:03;;;;;;;18.05;11.82;;;17.10;88.40;;;;;;5053731;28;20043;-72
2023/03/21 10:35:35;;;;;;;22.15;13.98;;;17.10;88.90;;;;;;5019156;28;20048;-69
2023/03/21 10:38:05;;;;;;;19.65;12.57;;;17.10;87.70;;;;;;5026263;28;20052;-75
2023/03/21 10:40:35;;;;;;;20.63;13.07;;;17.20;88.40;;;;;;5053055;28;20120;-73
2023/03/21 10:43:36;;;;;;;18.55;12.15;;;17.40;86.60;;;;;;5035020;28;20070;-73
2023/03/21 10:46:19;;;;;;;24.25;13.18;;;17.60;85.70;;;;;;5052191;28;20090;-75
2023/03/21 10:48:51;;;;;;;20.02;12.50;;;17.90;85.10;;;;;;5034892;23;20055;-72
2023/03/21 10:51:27;;;;;;;19.05;12.23;;;18.10;84.00;;;;;;5018832;28;20045;-72
2023/03/21 10:54:17;;;;;;;18.77;13.13;;;17.90;83.00;;;;;;5026194;28;20377;-70
2023/03/21 10:57:08;;;;;;;20.30;11.65;;;17.80;84.60;;;;;;5027109;28;20058;-71
2023/03/21 11:00:00;;;;;;;20.67;11.32;;;17.80;84.10;;;;;;5018559;28;20040;-72
2023/03/21 11:02:38;;;;;;;18.42;10.00;;;17.70;83.10;;;;;;5017504;28;20077;-76
2023/03/21 11:05:21;;;;;;;18.55;9.48;;;17.60;81.10;;;;;;5007199;28;20127;-71
2023/03/21 11:08:10;;;;;;;14.05;8.65;;;17.80;81.70;;;;;;5004330;28;20069;-72
2023/03/21 11:11:01;;;;;;;15.77;9.20;;;17.80;82.00;;;;;;5000592;28;20049;-73
2023/03/21 11:13:42;;;;;;;14.05;8.98;;;17.70;80.80;;;;;;5025680;28;20837;-75
2023/03/21 11:16:29;;;;;;;14.68;9.57;;;17.80;80.90;;;;;;5008049;28;21440;-69
2023/03/21 11:19:01;;;;;;;16.70;9.75;;;17.80;80.80;;;;;;5017897;28;20100;-74
2023/03/21 11:21:36;;;;;;;16.38;9.35;;;17.60;81.30;;;;;;5003854;28;20042;-75
2023/03/21 11:24:05;;;;;;;15.88;9.57;;;17.60;79.90;;;;;;5000816;28;20524;-72
2023/03/21 11:26:36;;;;;;;16.92;8.32;;;17.50;81.20;;;;;;5013442;28;20037;-72
2023/03/21 11:29:28;;;;;;;13.82;8.15;;;17.40;80.80;;;;;;5019770;28;20053;-70
2023/03/21 11:32:28;;;;;;;12.57;7.50;;;17.30;80.00;;;;;;5004588;28;20041;-71
2023/03/21 11:35:00;;;;;;;11.35;7.82;;;17.00;80.90;;;;;;5007353;28;20045;-71
2023/03/21 11:37:32;;;;;;;11.43;7.85;;;17.10;81.70;;;;;;5029526;28;20034;-72
2023/03/21 11:40:12;;;;;;;14.32;8.15;;;17.00;81.30;;;;;;5029585;28;20041;-73
2023/03/21 11:42:42;;;;;;;11.80;7.55;;;16.90;81.30;;;;;;4994341;28;20048;-68
2023/03/21 11:45:22;;;;;;;13.25;8.30;;;16.80;81.70;;;;;;5024922;28;20086;-71
2023/03/21 11:47:53;;;;;;;11.30;8.48;;;16.90;82.20;;;;;;5031747;28;20436;-71
2023/03/21 11:50:42;;;;;;;12.32;8.68;;;16.90;82.70;;;;;;5030627;28;20140;-71
2023/03/21 11:53:18;;;;;;;13.60;8.80;;;16.90;83.50;;;;;;5014237;28;20131;-72
2023/03/21 11:56:14;;;;;;;15.05;8.80;;;16.80;83.90;;;;;;5023801;28;20042;-71
2023/03/21 11:59:08;;;;;;;12.02;7.97;;;16.80;84.20;;;;;;5031536;28;20495;-71
2023/03/21 12:01:44;;;;;;;15.13;8.93;;;16.80;84.70;;;;;;5015145;28;20057;-72
2023/03/21 12:04:44;;;;;;;13.85;8.63;;;16.80;84.80;;;;;;5017142;28;20045;-70
2023/03/21 12:07:25;;;;;;;12.70;8.55;;;16.70;84.60;;;;;;5028175;28;20048;-72
2023/03/21 12:10:27;;;;;;;12.27;8.77;;;16.60;84.30;;;;;;5000166;28;20503;-70
2023/03/21 12:13:20;;;;;;;14.30;8.45;;;16.40;84.40;;;;;;5011345;28;20045;-70
2023/03/21 12:16:06;;;;;;;13.73;8.75;;;16.30;85.30;;;;;;5005655;28;20076;-70
2023/03/21 12:18:36;;;;;;;14.48;8.80;;;16.30;85.90;;;;;;5029920;28;20041;-71
2023/03/21 12:21:35;;;;;;;15.63;9.35;;;16.30;86.10;;;;;;5012334;28;20371;-70
2023/03/21 12:24:11;;;;;;;12.95;8.65;;;16.30;85.90;;;;;;5015162;28;20053;-73
2023/03/21 12:26:51;;;;;;;12.52;8.93;;;16.20;85.50;;;;;;5028458;28;20549;-71
2023/03/21 12:29:24;;;;;;;14.23;9.50;;;16.20;85.70;;;;;;5027322;28;20058;-70
2023/03/21 12:32:17;;;;;;;15.00;9.02;;;16.20;85.80;;;;;;5013524;28;20119;-74
2023/03/21 12:35:26;;;;;;;12.55;8.90;;;16.20;85.40;;;;;;4997417;28;20165;-73
2023/03/21 12:38:09;;;;;;;11.90;8.90;;;16.30;85.60;;;;;;5004734;28;20473;-70
2023/03/21 12:41:02;;;;;;;13.80;8.80;;;16.20;86.60;;;;;;5026692;28;20046;-72
2023/03/21 12:44:07;;;;;;;14.43;9.35;;;16.30;86.20;;;;;;5026330;28;20206;-71
2023/03/21 12:46:55;;;;;;;12.38;8.63;;;16.20;87.40;;;;;;5021109;28;20045;-73
2023/03/21 12:50:11;;;;;;;16.25;9.57;;;16.10;87.90;;;;;;5030961;28;20037;-73
2023/03/21 12:52:42;;;;;;;20.00;10.57;;;16.10;88.70;;;;;;4991791;28;20042;-74
2023/03/21 12:55:37;;;;;;;14.40;9.57;;;16.00;88.50;;;;;;5033462;28;20033;-71
2023/03/21 12:58:17;;;;;;;15.18;9.30;;;16.00;89.10;;;;;;5047010;28;20114;-72
2023/03/21 13:00:55;;;;;;;24.52;11.13;;;15.90;89.80;;;;;;5023788;28;20041;-74
2023/03/21 13:03:31;;;;;;;29.55;10.10;;;15.90;90.20;;;;;;5008532;28;20370;-73